createdAt,value
2022-11-29T00:01:38.733Z,2.52
2022-11-29T00:04:06.834Z,2.51
2022-11-29T00:06:35.383Z,2.48
2022-11-29T00:09:07.160Z,2.46
2022-11-29T00:11:52.739Z,2.46
2022-11-29T00:14:21.947Z,2.45
2022-11-29T00:16:52.549Z,2.42
2022-11-29T00:19:20.197Z,2.41
2022-11-29T00:21:48.234Z,2.41
2022-11-29T00:24:15.719Z,2.40
2022-11-29T00:26:43.303Z,2.39
2022-11-29T00:29:12.915Z,2.39
2022-11-29T00:31:41.473Z,2.39
2022-11-29T00:34:11.135Z,2.39
2022-11-29T00:36:39.033Z,2.40
2022-11-29T00:39:07.091Z,2.40
2022-11-29T00:41:35.174Z,2.38
2022-11-29T00:44:02.650Z,2.38
2022-11-29T00:46:30.145Z,2.36
2022-11-29T00:48:57.645Z,2.36
2022-11-29T00:51:25.185Z,2.35
2022-11-29T00:53:52.683Z,2.33
2022-11-29T00:56:20.219Z,2.30
2022-11-29T00:58:49.244Z,2.30
2022-11-29T01:01:17.342Z,2.28
2022-11-29T01:03:44.860Z,2.28
2022-11-29T01:06:14.883Z,2.27
2022-11-29T01:08:43.282Z,2.26
2022-11-29T01:11:22.908Z,2.26
2022-11-29T01:13:54.006Z,2.25
2022-11-29T01:16:22.477Z,2.23
2022-11-29T01:18:49.992Z,2.23
2022-11-29T01:21:20.577Z,2.23
2022-11-29T01:23:49.221Z,2.24
2022-11-29T01:26:22.879Z,2.26
2022-11-29T01:28:53.160Z,2.28
2022-11-29T01:31:26.746Z,2.29
2022-11-29T01:33:55.497Z,2.30
2022-11-29T01:36:24.249Z,2.28
2022-11-29T01:38:52.614Z,2.24
2022-11-29T01:41:23.433Z,2.20
2022-11-29T01:44:11.727Z,2.20
2022-11-29T01:46:42.538Z,2.19
2022-11-29T01:49:39.421Z,2.20
2022-11-29T01:52:12.692Z,2.21
2022-11-29T01:54:47.492Z,2.22
2022-11-29T01:57:16.192Z,2.21
2022-11-29T01:59:49.587Z,2.21
2022-11-29T02:02:39.064Z,2.19
2022-11-29T02:05:08.069Z,2.18
2022-11-29T02:07:36.585Z,2.19
2022-11-29T02:10:06.692Z,2.23
2022-11-29T02:12:49.485Z,2.24
2022-11-29T02:15:26.011Z,2.22
2022-11-29T02:18:20.438Z,2.23
2022-11-29T02:20:56.913Z,2.22
2022-11-29T02:23:56.394Z,2.19
2022-11-29T02:26:48.752Z,2.16
2022-11-29T02:29:48.260Z,2.13
2022-11-29T02:32:25.187Z,2.14
2022-11-29T02:35:11.615Z,2.16
2022-11-29T02:38:11.021Z,2.17
2022-11-29T02:41:11.456Z,2.17
2022-11-29T02:44:00.656Z,2.18
2022-11-29T02:46:50.096Z,2.18
2022-11-29T02:49:52.763Z,2.18
2022-11-29T02:52:52.167Z,2.19
2022-11-29T02:55:33.437Z,2.18
2022-11-29T02:58:23.758Z,2.17
2022-11-29T03:01:04.117Z,2.17
2022-11-29T03:03:39.851Z,2.18
2022-11-29T03:06:18.253Z,2.18
2022-11-29T03:08:51.849Z,2.17
2022-11-29T03:11:35.265Z,2.14
2022-11-29T03:14:34.684Z,2.13
2022-11-29T03:17:17.593Z,2.11
2022-11-29T03:20:06.373Z,2.13
2022-11-29T03:22:46.947Z,2.13
2022-11-29T03:25:40.925Z,2.13
2022-11-29T03:28:18.633Z,2.14
2022-11-29T03:31:02.230Z,2.12
2022-11-29T03:33:45.777Z,2.10
2022-11-29T03:36:29.612Z,2.12
2022-11-29T03:39:03.885Z,2.13
2022-11-29T03:41:43.947Z,2.14
2022-11-29T03:44:18.881Z,2.12
2022-11-29T03:46:54.559Z,2.11
2022-11-29T03:49:40.984Z,2.10
2022-11-29T03:52:40.472Z,2.07
2022-11-29T03:55:33.039Z,2.05
2022-11-29T03:58:09.798Z,2.03
2022-11-29T04:01:09.220Z,2.05
2022-11-29T04:03:58.299Z,2.09
2022-11-29T04:06:31.625Z,2.09
2022-11-29T04:09:31.470Z,2.09
2022-11-29T04:12:05.016Z,2.10
2022-11-29T04:15:15.719Z,2.08
2022-11-29T04:18:15.239Z,2.07
2022-11-29T04:21:02.811Z,2.09
2022-11-29T04:23:52.457Z,2.11
2022-11-29T04:26:51.313Z,2.09
2022-11-29T04:29:56.845Z,2.08
2022-11-29T04:32:27.443Z,2.05
2022-11-29T04:35:26.897Z,2.04
2022-11-29T04:38:06.820Z,2.02
2022-11-29T04:40:57.071Z,2.02
2022-11-29T04:43:43.698Z,2.03
2022-11-29T04:46:47.498Z,2.04
2022-11-29T04:49:47.018Z,2.04
2022-11-29T04:52:48.461Z,2.03
2022-11-29T04:55:39.762Z,2.00
2022-11-29T04:58:32.098Z,1.97
2022-11-29T05:01:15.084Z,1.96
2022-11-29T05:04:01.395Z,1.95
2022-11-29T05:06:40.537Z,1.97
2022-11-29T05:09:16.883Z,2.00
2022-11-29T05:11:58.710Z,2.02
2022-11-29T05:15:06.575Z,2.05
2022-11-29T05:17:56.382Z,2.05
2022-11-29T05:20:39.974Z,2.07
2022-11-29T05:23:23.368Z,2.06
2022-11-29T05:25:59.914Z,2.08
2022-11-29T05:28:44.172Z,2.11
2022-11-29T05:31:43.675Z,2.14
2022-11-29T05:34:17.340Z,2.13
2022-11-29T05:37:00.804Z,2.13
2022-11-29T05:39:41.331Z,2.10
2022-11-29T05:42:37.071Z,2.10
2022-11-29T05:45:36.902Z,2.10
2022-11-29T05:48:36.421Z,2.07
2022-11-29T05:51:19.809Z,2.07
2022-11-29T05:54:19.397Z,2.08
2022-11-29T05:57:13.802Z,2.09
2022-11-29T05:59:43.862Z,2.12
2022-11-29T06:02:33.335Z,2.13
2022-11-29T06:05:39.164Z,2.16
2022-11-29T06:08:21.561Z,2.17
2022-11-29T06:11:00.778Z,2.16
2022-11-29T06:13:51.042Z,2.13
2022-11-29T06:16:34.582Z,2.12
2022-11-29T06:19:18.090Z,2.12
2022-11-29T06:21:48.859Z,2.15
2022-11-29T06:24:40.098Z,2.16
2022-11-29T06:27:39.775Z,2.16
2022-11-29T06:30:14.323Z,2.13
2022-11-29T06:32:49.708Z,2.12
2022-11-29T06:35:40.314Z,2.12
2022-11-29T06:38:30.905Z,2.12
2022-11-29T06:41:02.659Z,2.15
2022-11-29T06:43:33.706Z,2.17
2022-11-29T06:46:14.305Z,2.20
2022-11-29T06:48:49.767Z,2.22
2022-11-29T06:51:22.324Z,2.20
2022-11-29T06:53:53.065Z,2.20
2022-11-29T06:56:36.737Z,2.18
2022-11-29T06:59:12.408Z,2.16
2022-11-29T07:01:44.415Z,2.16
2022-11-29T07:04:20.119Z,2.16
2022-11-29T07:06:48.080Z,2.17
2022-11-29T07:09:20.551Z,2.19
2022-11-29T07:11:48.400Z,2.19
2022-11-29T07:14:16.167Z,2.21
2022-11-29T07:17:06.564Z,2.22
2022-11-29T07:19:50.251Z,2.25
2022-11-29T07:22:20.864Z,2.24
2022-11-29T07:24:57.599Z,2.22
2022-11-29T07:27:41.069Z,2.22
2022-11-29T07:30:20.639Z,2.22
2022-11-29T07:33:00.287Z,2.22
2022-11-29T07:36:01.559Z,2.23
2022-11-29T07:38:59.841Z,2.24
2022-11-29T07:41:41.067Z,2.27
2022-11-29T07:44:34.284Z,2.29
2022-11-29T07:47:01.937Z,2.28
2022-11-29T07:49:29.748Z,2.26
2022-11-29T07:51:57.393Z,2.23
2022-11-29T07:54:25.393Z,2.22
2022-11-29T07:56:53.061Z,2.20
2022-11-29T07:59:25.214Z,2.20
2022-11-29T08:01:52.928Z,2.19
2022-11-29T08:04:20.590Z,2.19
2022-11-29T08:06:48.223Z,2.20
2022-11-29T08:09:15.754Z,2.22
2022-11-29T08:11:44.836Z,2.25
2022-11-29T08:14:12.375Z,2.28
2022-11-29T08:16:40.073Z,2.28
2022-11-29T08:19:07.685Z,2.28
2022-11-29T08:21:35.182Z,2.27
2022-11-29T08:24:02.819Z,2.28
2022-11-29T08:26:31.753Z,2.27
2022-11-29T08:28:59.638Z,2.26
2022-11-29T08:31:27.206Z,2.25
2022-11-29T08:33:54.851Z,2.24
2022-11-29T08:36:22.642Z,2.20
2022-11-29T08:38:52.836Z,2.19
2022-11-29T08:41:24.822Z,2.20
2022-11-29T08:43:52.290Z,2.21
2022-11-29T08:46:19.847Z,2.23
2022-11-29T08:48:48.154Z,2.25
2022-11-29T08:51:15.720Z,2.29
2022-11-29T08:53:43.601Z,2.33
2022-11-29T08:56:53.424Z,2.34
2022-11-29T08:59:01.740Z,2.36
2022-11-29T09:01:29.555Z,2.40
2022-11-29T09:04:00.182Z,2.42
2022-11-29T09:06:39.813Z,2.44
2022-11-29T09:09:07.794Z,2.47
2022-11-29T09:11:36.790Z,2.48
2022-11-29T09:14:07.007Z,2.51
2022-11-29T09:16:36.934Z,2.55
2022-11-29T09:19:05.518Z,2.61
2022-11-29T09:21:36.646Z,2.68
2022-11-29T09:24:06.514Z,2.73
2022-11-29T09:26:37.029Z,2.78
2022-11-29T09:29:06.979Z,2.81
2022-11-29T09:31:35.432Z,2.83
2022-11-29T09:34:03.787Z,2.83
2022-11-29T09:36:31.573Z,2.84
2022-11-29T09:39:02.640Z,2.85
2022-11-29T09:41:49.202Z,2.84
2022-11-29T09:44:29.158Z,2.82
2022-11-29T09:47:04.271Z,2.85
2022-11-29T09:49:56.022Z,2.88
2022-11-29T09:52:55.784Z,2.92
2022-11-29T09:55:44.221Z,2.95
2022-11-29T09:58:20.884Z,2.90
2022-11-29T10:00:52.843Z,2.86
2022-11-29T10:03:26.457Z,2.85
2022-11-29T10:06:00.291Z,2.82
2022-11-29T10:08:36.736Z,2.80
2022-11-29T10:11:36.285Z,2.76
2022-11-29T10:14:17.987Z,2.73
2022-11-29T10:17:03.959Z,2.71
2022-11-29T10:19:36.453Z,2.68
2022-11-29T10:22:16.104Z,2.68
2022-11-29T10:24:47.354Z,2.68
2022-11-29T10:27:22.573Z,2.69
2022-11-29T10:29:54.133Z,2.65
2022-11-29T10:32:25.286Z,2.61
2022-11-29T10:34:53.283Z,2.56
2022-11-29T10:37:23.860Z,2.54
2022-11-29T10:40:00.306Z,2.55
2022-11-29T10:42:45.165Z,2.58
2022-11-29T10:45:37.977Z,2.63
2022-11-29T10:48:18.130Z,2.69
2022-11-29T10:50:49.415Z,2.75
2022-11-29T10:53:22.869Z,2.77
2022-11-29T10:56:08.735Z,2.76
2022-11-29T10:58:37.397Z,2.75
2022-11-29T11:01:07.657Z,2.78
2022-11-29T11:03:43.428Z,2.80
2022-11-29T11:06:12.973Z,2.79
2022-11-29T11:08:57.190Z,2.75
2022-11-29T11:11:30.823Z,2.69
2022-11-29T11:14:22.755Z,2.70
2022-11-29T11:16:51.021Z,2.73
2022-11-29T11:19:35.672Z,2.76
2022-11-29T11:22:04.250Z,2.75
2022-11-29T11:24:36.177Z,2.74
2022-11-29T11:27:07.631Z,2.74
2022-11-29T11:29:40.953Z,2.74
2022-11-29T11:32:25.185Z,2.72
2022-11-29T11:34:57.873Z,2.72
2022-11-29T11:37:31.373Z,2.74
2022-11-29T11:40:18.430Z,2.79
2022-11-29T11:42:46.798Z,2.82
2022-11-29T11:45:14.568Z,2.84
2022-11-29T11:47:49.227Z,2.85
2022-11-29T11:50:37.730Z,2.87
2022-11-29T11:53:19.584Z,2.85
2022-11-29T11:56:11.834Z,2.82
2022-11-29T11:58:51.696Z,2.75
2022-11-29T12:01:39.023Z,2.71
2022-11-29T12:04:27.782Z,2.66
2022-11-29T12:07:01.146Z,2.65
2022-11-29T12:09:28.666Z,2.64
2022-11-29T12:12:18.762Z,2.57
2022-11-29T12:15:02.711Z,2.53
2022-11-29T12:17:51.609Z,2.54
2022-11-29T12:20:24.548Z,2.55
2022-11-29T12:23:08.023Z,2.56
2022-11-29T12:25:57.663Z,2.57
2022-11-29T12:28:32.495Z,2.56
2022-11-29T12:31:41.586Z,2.54
2022-11-29T12:34:26.226Z,2.51
2022-11-29T12:37:10.552Z,2.52
2022-11-29T12:40:10.709Z,2.51
2022-11-29T12:43:10.864Z,2.51
2022-11-29T12:46:03.876Z,2.52
2022-11-29T12:48:54.518Z,2.56
2022-11-29T12:51:39.535Z,2.58
2022-11-29T12:54:15.565Z,2.60
2022-11-29T12:57:23.119Z,2.59
2022-11-29T13:00:11.472Z,2.55
2022-11-29T13:02:55.414Z,2.55
2022-11-29T13:05:55.103Z,2.57
2022-11-29T13:08:52.768Z,2.56
2022-11-29T13:11:27.362Z,2.53
2022-11-29T13:14:41.497Z,2.49
2022-11-29T13:17:03.681Z,2.48
2022-11-29T13:19:47.333Z,2.44
2022-11-29T13:22:32.911Z,2.45
2022-11-29T13:25:04.401Z,2.41
2022-11-29T13:27:36.911Z,2.39
2022-11-29T13:30:05.783Z,2.38
2022-11-29T13:32:37.334Z,2.36
2022-11-29T13:35:15.882Z,2.36
2022-11-29T13:38:01.322Z,2.36
2022-11-29T13:40:29.150Z,2.34
2022-11-29T13:43:15.528Z,2.33
2022-11-29T13:46:02.414Z,2.32
2022-11-29T13:48:48.604Z,2.33
2022-11-29T13:51:41.378Z,2.29
2022-11-29T13:54:28.446Z,2.25
2022-11-29T13:57:06.421Z,2.24
2022-11-29T13:59:37.404Z,2.23
2022-11-29T14:02:30.526Z,2.20
2022-11-29T14:04:58.550Z,2.23
2022-11-29T14:07:26.130Z,2.25
2022-11-29T14:10:28.644Z,2.27
2022-11-29T14:12:57.449Z,2.30
2022-11-29T14:15:28.349Z,2.32
2022-11-29T14:17:58.846Z,2.31
2022-11-29T14:20:28.036Z,2.31
2022-11-29T14:23:12.508Z,2.30
2022-11-29T14:25:51.545Z,2.29
2022-11-29T14:28:22.770Z,2.30
2022-11-29T14:30:52.436Z,2.30
2022-11-29T14:33:39.041Z,2.29
2022-11-29T14:36:21.510Z,2.29
2022-11-29T14:39:10.809Z,2.31
2022-11-29T14:42:03.900Z,2.31
2022-11-29T14:44:33.500Z,2.30
2022-11-29T14:47:05.116Z,2.30
2022-11-29T14:49:40.651Z,2.26
2022-11-29T14:52:14.415Z,2.23
2022-11-29T14:54:59.350Z,2.22
2022-11-29T14:57:58.953Z,2.23
2022-11-29T15:00:27.816Z,2.24
2022-11-29T15:03:01.885Z,2.28
2022-11-29T15:05:33.533Z,2.32
2022-11-29T15:08:17.176Z,2.36
2022-11-29T15:10:51.259Z,2.38
2022-11-29T15:13:27.094Z,2.40
2022-11-29T15:16:10.791Z,2.42
2022-11-29T15:18:54.742Z,2.42
2022-11-29T15:21:44.881Z,2.41
2022-11-29T15:24:15.516Z,2.40
2022-11-29T15:26:59.437Z,2.39
2022-11-29T15:29:28.592Z,2.37
2022-11-29T15:32:03.767Z,2.34
2022-11-29T15:34:43.382Z,2.30
2022-11-29T15:37:38.675Z,2.30
2022-11-29T15:40:10.728Z,2.30
2022-11-29T15:42:41.808Z,2.31
2022-11-29T15:45:31.315Z,2.33
2022-11-29T15:48:20.810Z,2.32
2022-11-29T15:51:07.813Z,2.31
2022-11-29T15:53:44.778Z,2.30
2022-11-29T15:56:35.295Z,2.29
2022-11-29T15:59:12.634Z,2.27
2022-11-29T16:01:45.450Z,2.26
2022-11-29T16:04:19.401Z,2.25
2022-11-29T16:06:49.588Z,2.25
2022-11-29T16:09:39.009Z,2.26
2022-11-29T16:12:13.276Z,2.28
2022-11-29T16:14:58.401Z,2.28
2022-11-29T16:17:35.223Z,2.28
2022-11-29T16:20:19.254Z,2.29
2022-11-29T16:22:46.764Z,2.30
2022-11-29T16:25:19.613Z,2.30
2022-11-29T16:27:47.675Z,2.32
2022-11-29T16:30:23.989Z,2.33
2022-11-29T16:33:17.512Z,2.33
2022-11-29T16:35:45.126Z,2.32
2022-11-29T16:38:20.666Z,2.32
2022-11-29T16:41:27.449Z,2.32
2022-11-29T16:43:57.422Z,2.35
2022-11-29T16:46:27.821Z,2.38
2022-11-29T16:48:57.812Z,2.43
2022-11-29T16:51:37.561Z,2.45
2022-11-29T16:54:25.365Z,2.45
2022-11-29T16:56:56.212Z,2.43
2022-11-29T16:59:28.085Z,2.43
2022-11-29T17:01:57.041Z,2.43
2022-11-29T17:04:25.881Z,2.43
2022-11-29T17:06:55.837Z,2.41
2022-11-29T17:09:26.530Z,2.40
2022-11-29T17:11:55.508Z,2.41
2022-11-29T17:14:23.079Z,2.40
2022-11-29T17:16:51.965Z,2.40
2022-11-29T17:19:22.175Z,2.42
2022-11-29T17:21:51.144Z,2.46
2022-11-29T17:24:20.354Z,2.49
2022-11-29T17:26:48.220Z,2.51
2022-11-29T17:29:17.501Z,2.54
2022-11-29T17:31:50.601Z,2.54
2022-11-29T17:34:18.743Z,2.54
2022-11-29T17:36:46.662Z,2.52
2022-11-29T17:39:15.705Z,2.52
2022-11-29T17:41:43.412Z,2.50
2022-11-29T17:44:11.005Z,2.48
2022-11-29T17:46:38.982Z,2.46
2022-11-29T17:49:08.838Z,2.44
2022-11-29T17:51:54.258Z,2.43
2022-11-29T17:54:22.668Z,2.44
2022-11-29T17:56:51.064Z,2.45
2022-11-29T17:59:18.688Z,2.49
2022-11-29T18:01:49.286Z,2.52
2022-11-29T18:04:16.968Z,2.53
2022-11-29T18:06:49.416Z,2.57
2022-11-29T18:09:18.626Z,2.57
2022-11-29T18:11:49.019Z,2.55
2022-11-29T18:14:20.863Z,2.55
2022-11-29T18:16:48.695Z,2.56
2022-11-29T18:19:18.968Z,2.53
2022-11-29T18:21:47.444Z,2.50
2022-11-29T18:24:15.096Z,2.48
2022-11-29T18:26:42.901Z,2.47
2022-11-29T18:29:11.228Z,2.48
2022-11-29T18:31:41.563Z,2.51
2022-11-29T18:34:10.827Z,2.54
2022-11-29T18:36:44.919Z,2.53
2022-11-29T18:39:16.176Z,2.53
2022-11-29T18:41:47.153Z,2.55
2022-11-29T18:44:17.353Z,2.56
2022-11-29T18:46:46.426Z,2.55
2022-11-29T18:49:16.353Z,2.53
2022-11-29T18:51:45.959Z,2.52
2022-11-29T18:54:16.651Z,2.51
2022-11-29T18:56:45.277Z,2.51
2022-11-29T18:59:16.714Z,2.48
2022-11-29T19:01:47.478Z,2.47
2022-11-29T19:04:17.909Z,2.48
2022-11-29T19:06:46.159Z,2.49
2022-11-29T19:09:17.586Z,2.52
2022-11-29T19:11:45.095Z,2.53
2022-11-29T19:14:13.100Z,2.55
2022-11-29T19:16:45.068Z,2.57
2022-11-29T19:19:13.302Z,2.57
2022-11-29T19:21:41.582Z,2.59
2022-11-29T19:24:17.933Z,2.61
2022-11-29T19:26:47.338Z,2.61
2022-11-29T19:29:15.538Z,2.59
2022-11-29T19:31:44.679Z,2.58
2022-11-29T19:34:12.795Z,2.56
2022-11-29T19:36:45.025Z,2.54
2022-11-29T19:39:16.482Z,2.53
2022-11-29T19:41:46.619Z,2.51
2022-11-29T19:44:14.852Z,2.48
2022-11-29T19:46:46.301Z,2.45
2022-11-29T19:49:14.399Z,2.43
2022-11-29T19:51:43.202Z,2.46
2022-11-29T19:54:12.551Z,2.48
2022-11-29T19:56:40.970Z,2.48
2022-11-29T19:59:08.816Z,2.49
2022-11-29T20:01:42.004Z,2.49
2022-11-29T20:04:13.088Z,2.50
2022-11-29T20:06:41.021Z,2.51
2022-11-29T20:09:09.098Z,2.51
2022-11-29T20:11:36.911Z,2.50
2022-11-29T20:14:05.714Z,2.46
2022-11-29T20:16:33.603Z,2.44
2022-11-29T20:19:01.895Z,2.40
2022-11-29T20:21:31.829Z,2.38
2022-11-29T20:24:05.732Z,2.38
2022-11-29T20:26:36.114Z,2.40
2022-11-29T20:29:05.199Z,2.43
2022-11-29T20:31:34.881Z,2.45
2022-11-29T20:34:03.183Z,2.47
2022-11-29T20:37:06.762Z,2.45
2022-11-29T20:39:40.267Z,2.42
2022-11-29T20:42:34.754Z,2.41
2022-11-29T20:45:06.445Z,2.40
2022-11-29T20:47:46.369Z,2.39
2022-11-29T20:50:23.316Z,2.36
2022-11-29T20:53:15.349Z,2.34
2022-11-29T20:55:48.069Z,2.31
2022-11-29T20:58:18.227Z,2.33
2022-11-29T21:00:46.392Z,2.36
2022-11-29T21:03:18.283Z,2.37
2022-11-29T21:05:47.112Z,2.36
2022-11-29T21:08:16.195Z,2.35
2022-11-29T21:10:44.007Z,2.32
2022-11-29T21:13:13.379Z,2.30
2022-11-29T21:15:41.428Z,2.28
2022-11-29T21:18:20.195Z,2.23
2022-11-29T21:21:11.320Z,2.18
2022-11-29T21:23:51.285Z,2.13
2022-11-29T21:26:35.987Z,2.09
2022-11-29T21:29:19.765Z,2.06
2022-11-29T21:31:49.412Z,2.04
2022-11-29T21:34:17.104Z,2.02
2022-11-29T21:36:45.484Z,2.03
2022-11-29T21:39:16.212Z,2.02
2022-11-29T21:41:43.696Z,2.01
2022-11-29T21:44:11.202Z,1.96
2022-11-29T21:46:38.661Z,1.91
2022-11-29T21:49:06.252Z,1.89
2022-11-29T21:51:33.748Z,1.88
2022-11-29T21:54:01.403Z,1.87
2022-11-29T21:56:28.902Z,1.87
2022-11-29T21:58:56.381Z,1.88
2022-11-29T22:01:23.987Z,1.89
2022-11-29T22:03:53.332Z,1.91
2022-11-29T22:06:24.120Z,1.94
2022-11-29T22:08:52.095Z,1.98
2022-11-29T22:11:38.230Z,1.99
2022-11-29T22:14:13.771Z,2.01
2022-11-29T22:16:50.140Z,2.02
2022-11-29T22:19:20.670Z,2.03
2022-11-29T22:21:50.979Z,2.03
2022-11-29T22:24:21.622Z,2.01
2022-11-29T22:26:50.259Z,2.00
2022-11-29T22:29:18.436Z,1.98
2022-11-29T22:31:48.208Z,1.95
2022-11-29T22:34:16.224Z,1.95
2022-11-29T22:36:43.847Z,1.95
2022-11-29T22:39:11.770Z,1.96
2022-11-29T22:41:40.334Z,1.96
2022-11-29T22:44:08.700Z,1.96
2022-11-29T22:46:38.965Z,1.95
2022-11-29T22:49:07.012Z,1.96
2022-11-29T22:51:36.533Z,1.97
2022-11-29T22:54:09.075Z,1.96
2022-11-29T22:56:39.835Z,1.95
2022-11-29T22:59:08.004Z,1.95
2022-11-29T23:01:38.384Z,1.93
2022-11-29T23:04:08.045Z,1.93
2022-11-29T23:06:44.651Z,1.93
2022-11-29T23:09:19.855Z,1.95
2022-11-29T23:11:52.913Z,1.95
2022-11-29T23:14:20.800Z,1.94
2022-11-29T23:16:48.411Z,1.92
2022-11-29T23:19:16.326Z,1.90
2022-11-29T23:21:45.845Z,1.88
2022-11-29T23:24:15.414Z,1.87
2022-11-29T23:26:46.193Z,1.86
2022-11-29T23:29:17.709Z,1.83
2022-11-29T23:31:46.861Z,1.83
2022-11-29T23:34:14.836Z,1.83
2022-11-29T23:36:42.332Z,1.86
2022-11-29T23:39:10.301Z,1.88
2022-11-29T23:41:37.881Z,1.88
2022-11-29T23:44:06.458Z,1.86
2022-11-29T23:46:35.215Z,1.87
2022-11-29T23:49:03.309Z,1.87
2022-11-29T23:51:31.029Z,1.86
2022-11-29T23:53:58.519Z,1.86
2022-11-29T23:56:26.071Z,1.85
2022-11-29T23:58:53.536Z,1.84
